sensor_id;sensor_type;location;lat;lon;timestamp;P1;durP1;ratioP1;P2;durP2;ratioP2
13493;SDS011;6819;50.886;4.332;2023-04-16T00:00:46;5.22;;;2.90;;
13493;SDS011;6819;50.886;4.332;2023-04-16T00:03:12;7.15;;;3.15;;
13493;SDS011;6819;50.886;4.332;2023-04-16T00:05:38;9.55;;;2.90;;
13493;SDS011;6819;50.886;4.332;2023-04-16T00:08:04;14.10;;;2.85;;
13493;SDS011;6819;50.886;4.332;2023-04-16T00:10:30;8.15;;;3.40;;
13493;SDS011;6819;50.886;4.332;2023-04-16T00:12:56;13.52;;;3.38;;
13493;SDS011;6819;50.886;4.332;2023-04-16T00:15:22;11.60;;;3.47;;
13493;SDS011;6819;50.886;4.332;2023-04-16T00:17:48;10.80;;;3.55;;
13493;SDS011;6819;50.886;4.332;2023-04-16T00:20:14;11.25;;;3.83;;
13493;SDS011;6819;50.886;4.332;2023-04-16T00:22:40;9.55;;;4.07;;
13493;SDS011;6819;50.886;4.332;2023-04-16T00:25:06;10.30;;;4.15;;
13493;SDS011;6819;50.886;4.332;2023-04-16T00:27:33;8.57;;;3.88;;
13493;SDS011;6819;50.886;4.332;2023-04-16T00:29:59;12.18;;;4.80;;
13493;SDS011;6819;50.886;4.332;2023-04-16T00:32:25;10.82;;;4.25;;
13493;SDS011;6819;50.886;4.332;2023-04-16T00:34:51;18.17;;;5.22;;
13493;SDS011;6819;50.886;4.332;2023-04-16T00:37:17;8.80;;;4.22;;
13493;SDS011;6819;50.886;4.332;2023-04-16T00:39:43;10.02;;;3.83;;
13493;SDS011;6819;50.886;4.332;2023-04-16T00:42:09;7.90;;;3.47;;
13493;SDS011;6819;50.886;4.332;2023-04-16T00:44:35;7.95;;;3.50;;
13493;SDS011;6819;50.886;4.332;2023-04-16T00:47:01;9.40;;;3.22;;
13493;SDS011;6819;50.886;4.332;2023-04-16T00:49:27;6.53;;;3.05;;
13493;SDS011;6819;50.886;4.332;2023-04-16T00:51:54;12.02;;;2.92;;
13493;SDS011;6819;50.886;4.332;2023-04-16T00:54:20;4.22;;;2.40;;
13493;SDS011;6819;50.886;4.332;2023-04-16T00:56:46;8.85;;;3.20;;
13493;SDS011;6819;50.886;4.332;2023-04-16T00:59:13;6.63;;;2.20;;
13493;SDS011;6819;50.886;4.332;2023-04-16T01:01:39;5.20;;;2.08;;
13493;SDS011;6819;50.886;4.332;2023-04-16T01:04:05;9.00;;;1.92;;
13493;SDS011;6819;50.886;4.332;2023-04-16T01:06:31;4.63;;;1.90;;
13493;SDS011;6819;50.886;4.332;2023-04-16T01:08:57;5.88;;;1.70;;
13493;SDS011;6819;50.886;4.332;2023-04-16T01:11:23;8.23;;;2.28;;
13493;SDS011;6819;50.886;4.332;2023-04-16T01:13:49;6.57;;;2.13;;
13493;SDS011;6819;50.886;4.332;2023-04-16T01:16:15;9.77;;;2.22;;
13493;SDS011;6819;50.886;4.332;2023-04-16T01:18:41;6.03;;;1.98;;
13493;SDS011;6819;50.886;4.332;2023-04-16T01:21:07;5.28;;;1.95;;
13493;SDS011;6819;50.886;4.332;2023-04-16T01:23:34;4.68;;;2.42;;
13493;SDS011;6819;50.886;4.332;2023-04-16T01:26:00;6.95;;;2.33;;
13493;SDS011;6819;50.886;4.332;2023-04-16T01:28:26;8.70;;;2.28;;
13493;SDS011;6819;50.886;4.332;2023-04-16T01:30:52;4.15;;;2.50;;
13493;SDS011;6819;50.886;4.332;2023-04-16T01:33:18;5.82;;;2.40;;
13493;SDS011;6819;50.886;4.332;2023-04-16T01:35:44;5.72;;;2.67;;
13493;SDS011;6819;50.886;4.332;2023-04-16T01:38:10;11.60;;;3.22;;
13493;SDS011;6819;50.886;4.332;2023-04-16T01:40:36;6.43;;;2.53;;
13493;SDS011;6819;50.886;4.332;2023-04-16T01:43:03;7.05;;;2.90;;
13493;SDS011;6819;50.886;4.332;2023-04-16T01:45:32;7.32;;;3.00;;
13493;SDS011;6819;50.886;4.332;2023-04-16T01:47:58;4.80;;;2.60;;
13493;SDS011;6819;50.886;4.332;2023-04-16T01:50:24;5.85;;;2.90;;
13493;SDS011;6819;50.886;4.332;2023-04-16T01:52:50;10.38;;;2.95;;
13493;SDS011;6819;50.886;4.332;2023-04-16T01:55:16;6.20;;;2.75;;
13493;SDS011;6819;50.886;4.332;2023-04-16T01:57:42;5.72;;;2.63;;
13493;SDS011;6819;50.886;4.332;2023-04-16T02:00:08;3.50;;;2.75;;
13493;SDS011;6819;50.886;4.332;2023-04-16T02:02:35;5.70;;;2.65;;
13493;SDS011;6819;50.886;4.332;2023-04-16T02:05:01;5.82;;;2.63;;
13493;SDS011;6819;50.886;4.332;2023-04-16T02:07:27;2.78;;;2.38;;
13493;SDS011;6819;50.886;4.332;2023-04-16T02:09:53;3.75;;;2.20;;
13493;SDS011;6819;50.886;4.332;2023-04-16T02:12:19;5.88;;;2.60;;
13493;SDS011;6819;50.886;4.332;2023-04-16T02:14:45;6.25;;;2.60;;
13493;SDS011;6819;50.886;4.332;2023-04-16T02:17:11;6.65;;;2.40;;
13493;SDS011;6819;50.886;4.332;2023-04-16T02:19:39;6.13;;;3.20;;
13493;SDS011;6819;50.886;4.332;2023-04-16T02:22:05;5.32;;;2.10;;
13493;SDS011;6819;50.886;4.332;2023-04-16T02:24:31;6.00;;;2.25;;
13493;SDS011;6819;50.886;4.332;2023-04-16T02:26:57;4.50;;;2.38;;
13493;SDS011;6819;50.886;4.332;2023-04-16T02:29:23;7.93;;;2.67;;
13493;SDS011;6819;50.886;4.332;2023-04-16T02:31:49;6.25;;;2.60;;
13493;SDS011;6819;50.886;4.332;2023-04-16T02:34:15;3.20;;;2.20;;
13493;SDS011;6819;50.886;4.332;2023-04-16T02:36:41;4.85;;;2.35;;
13493;SDS011;6819;50.886;4.332;2023-04-16T02:39:07;6.72;;;3.00;;
13493;SDS011;6819;50.886;4.332;2023-04-16T02:41:33;5.75;;;2.60;;
13493;SDS011;6819;50.886;4.332;2023-04-16T02:43:59;6.38;;;2.78;;
13493;SDS011;6819;50.886;4.332;2023-04-16T02:46:25;6.40;;;2.63;;
13493;SDS011;6819;50.886;4.332;2023-04-16T02:48:51;9.93;;;2.50;;
13493;SDS011;6819;50.886;4.332;2023-04-16T02:51:17;4.22;;;3.08;;
13493;SDS011;6819;50.886;4.332;2023-04-16T02:53:43;7.35;;;2.67;;
13493;SDS011;6819;50.886;4.332;2023-04-16T02:56:10;7.00;;;2.45;;
13493;SDS011;6819;50.886;4.332;2023-04-16T02:58:36;9.40;;;2.80;;
13493;SDS011;6819;50.886;4.332;2023-04-16T03:01:03;14.02;;;3.03;;
13493;SDS011;6819;50.886;4.332;2023-04-16T03:03:29;6.80;;;2.67;;
13493;SDS011;6819;50.886;4.332;2023-04-16T03:05:55;5.88;;;2.50;;
13493;SDS011;6819;50.886;4.332;2023-04-16T03:08:21;11.50;;;2.60;;
13493;SDS011;6819;50.886;4.332;2023-04-16T03:10:47;5.40;;;2.35;;
13493;SDS011;6819;50.886;4.332;2023-04-16T03:13:13;6.80;;;2.60;;
13493;SDS011;6819;50.886;4.332;2023-04-16T03:15:39;8.70;;;2.60;;
13493;SDS011;6819;50.886;4.332;2023-04-16T03:18:05;2.95;;;2.35;;
13493;SDS011;6819;50.886;4.332;2023-04-16T03:20:31;5.32;;;2.25;;
13493;SDS011;6819;50.886;4.332;2023-04-16T03:22:57;4.47;;;2.13;;
13493;SDS011;6819;50.886;4.332;2023-04-16T03:25:23;8.73;;;2.50;;
13493;SDS011;6819;50.886;4.332;2023-04-16T03:27:50;4.88;;;2.08;;
13493;SDS011;6819;50.886;4.332;2023-04-16T03:30:16;8.65;;;2.40;;
13493;SDS011;6819;50.886;4.332;2023-04-16T03:32:42;3.08;;;1.90;;
13493;SDS011;6819;50.886;4.332;2023-04-16T03:35:08;7.07;;;1.92;;
13493;SDS011;6819;50.886;4.332;2023-04-16T03:37:34;7.95;;;2.45;;
13493;SDS011;6819;50.886;4.332;2023-04-16T03:40:00;5.13;;;1.92;;
13493;SDS011;6819;50.886;4.332;2023-04-16T03:42:27;7.47;;;2.15;;
13493;SDS011;6819;50.886;4.332;2023-04-16T03:44:53;8.52;;;1.73;;
13493;SDS011;6819;50.886;4.332;2023-04-16T03:47:19;4.78;;;1.75;;
13493;SDS011;6819;50.886;4.332;2023-04-16T03:49:45;3.92;;;1.85;;
13493;SDS011;6819;50.886;4.332;2023-04-16T03:52:11;3.25;;;1.70;;
13493;SDS011;6819;50.886;4.332;2023-04-16T03:54:37;5.80;;;1.77;;
13493;SDS011;6819;50.886;4.332;2023-04-16T03:57:03;3.63;;;2.03;;
13493;SDS011;6819;50.886;4.332;2023-04-16T03:59:29;5.72;;;1.90;;
13493;SDS011;6819;50.886;4.332;2023-04-16T04:01:55;4.45;;;2.00;;
13493;SDS011;6819;50.886;4.332;2023-04-16T04:04:21;10.77;;;2.00;;
13493;SDS011;6819;50.886;4.332;2023-04-16T04:06:47;5.10;;;1.90;;
13493;SDS011;6819;50.886;4.332;2023-04-16T04:09:13;9.48;;;2.38;;
13493;SDS011;6819;50.886;4.332;2023-04-16T04:11:40;4.07;;;1.80;;
13493;SDS011;6819;50.886;4.332;2023-04-16T04:14:06;5.35;;;2.05;;
13493;SDS011;6819;50.886;4.332;2023-04-16T04:16:32;7.38;;;2.13;;
13493;SDS011;6819;50.886;4.332;2023-04-16T04:18:59;6.30;;;2.33;;
13493;SDS011;6819;50.886;4.332;2023-04-16T04:21:28;5.40;;;2.15;;
13493;SDS011;6819;50.886;4.332;2023-04-16T04:23:55;8.25;;;2.60;;
13493;SDS011;6819;50.886;4.332;2023-04-16T04:26:21;10.00;;;2.83;;
13493;SDS011;6819;50.886;4.332;2023-04-16T04:28:47;5.00;;;2.40;;
13493;SDS011;6819;50.886;4.332;2023-04-16T04:31:13;6.45;;;2.40;;
13493;SDS011;6819;50.886;4.332;2023-04-16T04:33:39;5.63;;;2.45;;
13493;SDS011;6819;50.886;4.332;2023-04-16T04:36:06;8.18;;;2.92;;
13493;SDS011;6819;50.886;4.332;2023-04-16T04:38:32;5.97;;;2.42;;
13493;SDS011;6819;50.886;4.332;2023-04-16T04:40:58;5.43;;;2.30;;
13493;SDS011;6819;50.886;4.332;2023-04-16T04:43:24;8.15;;;2.53;;
13493;SDS011;6819;50.886;4.332;2023-04-16T04:45:50;5.38;;;2.17;;
13493;SDS011;6819;50.886;4.332;2023-04-16T04:48:16;7.72;;;2.22;;
13493;SDS011;6819;50.886;4.332;2023-04-16T04:50:43;4.57;;;2.33;;
13493;SDS011;6819;50.886;4.332;2023-04-16T04:53:09;8.73;;;2.10;;
13493;SDS011;6819;50.886;4.332;2023-04-16T04:55:38;6.93;;;2.03;;
13493;SDS011;6819;50.886;4.332;2023-04-16T04:58:05;10.35;;;2.38;;
13493;SDS011;6819;50.886;4.332;2023-04-16T05:00:31;5.50;;;1.75;;
13493;SDS011;6819;50.886;4.332;2023-04-16T05:03:00;8.13;;;2.10;;
13493;SDS011;6819;50.886;4.332;2023-04-16T05:05:27;5.57;;;2.20;;
13493;SDS011;6819;50.886;4.332;2023-04-16T05:07:53;7.63;;;2.00;;
13493;SDS011;6819;50.886;4.332;2023-04-16T05:10:19;3.42;;;1.70;;
13493;SDS011;6819;50.886;4.332;2023-04-16T05:12:45;6.70;;;1.80;;
13493;SDS011;6819;50.886;4.332;2023-04-16T05:15:15;5.15;;;1.75;;
13493;SDS011;6819;50.886;4.332;2023-04-16T05:17:41;6.57;;;1.85;;
13493;SDS011;6819;50.886;4.332;2023-04-16T05:20:07;5.10;;;1.70;;
13493;SDS011;6819;50.886;4.332;2023-04-16T05:22:34;3.17;;;1.63;;
13493;SDS011;6819;50.886;4.332;2023-04-16T05:25:00;9.15;;;1.90;;
13493;SDS011;6819;50.886;4.332;2023-04-16T05:27:26;6.45;;;1.40;;
13493;SDS011;6819;50.886;4.332;2023-04-16T05:29:52;6.93;;;1.67;;
13493;SDS011;6819;50.886;4.332;2023-04-16T05:32:18;6.32;;;1.80;;
13493;SDS011;6819;50.886;4.332;2023-04-16T05:34:44;5.43;;;1.75;;
13493;SDS011;6819;50.886;4.332;2023-04-16T05:37:10;9.13;;;1.75;;
13493;SDS011;6819;50.886;4.332;2023-04-16T05:39:36;3.05;;;1.42;;
13493;SDS011;6819;50.886;4.332;2023-04-16T05:42:02;8.18;;;2.10;;
13493;SDS011;6819;50.886;4.332;2023-04-16T05:44:28;6.60;;;1.80;;
13493;SDS011;6819;50.886;4.332;2023-04-16T05:46:54;9.73;;;2.05;;
13493;SDS011;6819;50.886;4.332;2023-04-16T05:49:20;4.82;;;1.73;;
13493;SDS011;6819;50.886;4.332;2023-04-16T05:51:46;5.10;;;2.00;;
13493;SDS011;6819;50.886;4.332;2023-04-16T05:54:12;6.78;;;1.75;;
13493;SDS011;6819;50.886;4.332;2023-04-16T05:56:38;11.85;;;1.90;;
13493;SDS011;6819;50.886;4.332;2023-04-16T05:59:05;3.35;;;1.85;;
13493;SDS011;6819;50.886;4.332;2023-04-16T06:01:31;6.30;;;1.88;;
13493;SDS011;6819;50.886;4.332;2023-04-16T06:03:57;5.35;;;1.85;;
13493;SDS011;6819;50.886;4.332;2023-04-16T06:06:23;10.15;;;2.45;;
13493;SDS011;6819;50.886;4.332;2023-04-16T06:08:51;8.07;;;2.10;;
13493;SDS011;6819;50.886;4.332;2023-04-16T06:11:17;6.57;;;2.53;;
13493;SDS011;6819;50.886;4.332;2023-04-16T06:13:43;8.57;;;1.90;;
13493;SDS011;6819;50.886;4.332;2023-04-16T06:16:09;6.78;;;1.88;;
13493;SDS011;6819;50.886;4.332;2023-04-16T06:18:35;5.85;;;2.33;;
13493;SDS011;6819;50.886;4.332;2023-04-16T06:21:02;4.60;;;1.92;;
13493;SDS011;6819;50.886;4.332;2023-04-16T06:23:28;5.47;;;1.95;;
13493;SDS011;6819;50.886;4.332;2023-04-16T06:25:54;7.40;;;2.75;;
13493;SDS011;6819;50.886;4.332;2023-04-16T06:28:20;4.13;;;2.22;;
13493;SDS011;6819;50.886;4.332;2023-04-16T06:30:46;6.00;;;2.20;;
13493;SDS011;6819;50.886;4.332;2023-04-16T06:33:12;5.68;;;2.20;;
13493;SDS011;6819;50.886;4.332;2023-04-16T06:35:38;3.63;;;1.92;;
13493;SDS011;6819;50.886;4.332;2023-04-16T06:38:04;5.68;;;2.20;;
13493;SDS011;6819;50.886;4.332;2023-04-16T06:40:30;9.50;;;2.60;;
13493;SDS011;6819;50.886;4.332;2023-04-16T06:42:56;11.30;;;2.95;;
13493;SDS011;6819;50.886;4.332;2023-04-16T06:45:22;9.23;;;3.00;;
13493;SDS011;6819;50.886;4.332;2023-04-16T06:47:48;7.68;;;2.90;;
13493;SDS011;6819;50.886;4.332;2023-04-16T06:50:16;13.65;;;3.85;;
13493;SDS011;6819;50.886;4.332;2023-04-16T06:52:42;8.50;;;4.05;;
13493;SDS011;6819;50.886;4.332;2023-04-16T06:55:08;11.95;;;3.92;;
13493;SDS011;6819;50.886;4.332;2023-04-16T06:57:34;12.07;;;3.88;;
13493;SDS011;6819;50.886;4.332;2023-04-16T07:00:01;12.07;;;3.90;;
13493;SDS011;6819;50.886;4.332;2023-04-16T07:02:27;8.50;;;4.50;;
13493;SDS011;6819;50.886;4.332;2023-04-16T07:04:53;8.85;;;4.18;;
13493;SDS011;6819;50.886;4.332;2023-04-16T07:07:19;16.65;;;4.72;;
13493;SDS011;6819;50.886;4.332;2023-04-16T07:09:45;12.70;;;4.80;;
13493;SDS011;6819;50.886;4.332;2023-04-16T07:12:11;6.32;;;3.92;;
13493;SDS011;6819;50.886;4.332;2023-04-16T07:14:37;10.15;;;4.03;;
13493;SDS011;6819;50.886;4.332;2023-04-16T07:17:03;9.18;;;3.70;;
13493;SDS011;6819;50.886;4.332;2023-04-16T07:19:29;18.00;;;4.72;;
13493;SDS011;6819;50.886;4.332;2023-04-16T07:21:57;11.70;;;3.90;;
13493;SDS011;6819;50.886;4.332;2023-04-16T07:24:23;14.60;;;4.00;;
13493;SDS011;6819;50.886;4.332;2023-04-16T07:26:49;11.57;;;3.95;;
13493;SDS011;6819;50.886;4.332;2023-04-16T07:29:15;15.85;;;4.60;;
13493;SDS011;6819;50.886;4.332;2023-04-16T07:31:41;12.80;;;4.38;;
13493;SDS011;6819;50.886;4.332;2023-04-16T07:34:07;14.02;;;4.40;;
13493;SDS011;6819;50.886;4.332;2023-04-16T07:36:33;14.15;;;3.65;;
13493;SDS011;6819;50.886;4.332;2023-04-16T07:39:00;12.32;;;4.05;;
13493;SDS011;6819;50.886;4.332;2023-04-16T07:41:26;8.25;;;3.90;;
13493;SDS011;6819;50.886;4.332;2023-04-16T07:43:53;7.68;;;3.63;;
13493;SDS011;6819;50.886;4.332;2023-04-16T07:46:19;14.18;;;3.90;;
13493;SDS011;6819;50.886;4.332;2023-04-16T07:48:46;13.23;;;5.18;;
13493;SDS011;6819;50.886;4.332;2023-04-16T07:51:12;7.72;;;3.78;;
13493;SDS011;6819;50.886;4.332;2023-04-16T07:53:38;11.27;;;4.38;;
13493;SDS011;6819;50.886;4.332;2023-04-16T07:56:04;9.98;;;4.82;;
13493;SDS011;6819;50.886;4.332;2023-04-16T07:58:30;11.48;;;5.03;;
13493;SDS011;6819;50.886;4.332;2023-04-16T08:00:56;15.93;;;5.35;;
13493;SDS011;6819;50.886;4.332;2023-04-16T08:03:23;16.23;;;5.20;;
13493;SDS011;6819;50.886;4.332;2023-04-16T08:05:49;12.60;;;5.47;;
13493;SDS011;6819;50.886;4.332;2023-04-16T08:08:15;12.52;;;5.75;;
13493;SDS011;6819;50.886;4.332;2023-04-16T08:10:41;13.93;;;5.70;;
13493;SDS011;6819;50.886;4.332;2023-04-16T08:13:07;12.65;;;5.82;;
13493;SDS011;6819;50.886;4.332;2023-04-16T08:15:33;16.42;;;6.35;;
13493;SDS011;6819;50.886;4.332;2023-04-16T08:17:59;17.05;;;5.93;;
13493;SDS011;6819;50.886;4.332;2023-04-16T08:20:25;18.15;;;6.15;;
13493;SDS011;6819;50.886;4.332;2023-04-16T08:22:52;11.50;;;5.90;;
13493;SDS011;6819;50.886;4.332;2023-04-16T08:25:18;11.05;;;6.32;;
13493;SDS011;6819;50.886;4.332;2023-04-16T08:27:45;18.40;;;6.15;;
13493;SDS011;6819;50.886;4.332;2023-04-16T08:30:11;20.65;;;6.30;;
13493;SDS011;6819;50.886;4.332;2023-04-16T08:32:37;13.38;;;5.95;;
13493;SDS011;6819;50.886;4.332;2023-04-16T08:35:03;15.93;;;6.25;;
13493;SDS011;6819;50.886;4.332;2023-04-16T08:37:29;18.02;;;6.75;;
13493;SDS011;6819;50.886;4.332;2023-04-16T08:39:55;17.52;;;7.38;;
13493;SDS011;6819;50.886;4.332;2023-04-16T08:42:35;10.93;;;6.22;;
13493;SDS011;6819;50.886;4.332;2023-04-16T08:45:12;16.83;;;6.30;;
13493;SDS011;6819;50.886;4.332;2023-04-16T08:47:44;15.57;;;6.43;;
13493;SDS011;6819;50.886;4.332;2023-04-16T08:50:10;14.25;;;6.25;;
13493;SDS011;6819;50.886;4.332;2023-04-16T08:52:38;12.52;;;6.00;;
13493;SDS011;6819;50.886;4.332;2023-04-16T08:55:17;24.42;;;6.90;;
13493;SDS011;6819;50.886;4.332;2023-04-16T08:57:49;18.77;;;6.57;;
13493;SDS011;6819;50.886;4.332;2023-04-16T09:00:17;12.32;;;6.45;;
13493;SDS011;6819;50.886;4.332;2023-04-16T09:02:43;13.90;;;6.18;;
13493;SDS011;6819;50.886;4.332;2023-04-16T09:05:11;13.75;;;7.50;;
13493;SDS011;6819;50.886;4.332;2023-04-16T09:07:41;16.63;;;6.53;;
13493;SDS011;6819;50.886;4.332;2023-04-16T09:10:07;12.07;;;6.35;;
13493;SDS011;6819;50.886;4.332;2023-04-16T09:12:33;12.25;;;6.38;;
13493;SDS011;6819;50.886;4.332;2023-04-16T09:14:59;9.45;;;6.15;;
13493;SDS011;6819;50.886;4.332;2023-04-16T09:17:27;12.68;;;6.97;;
13493;SDS011;6819;50.886;4.332;2023-04-16T09:19:53;16.00;;;7.28;;
13493;SDS011;6819;50.886;4.332;2023-04-16T09:22:19;15.35;;;6.85;;
13493;SDS011;6819;50.886;4.332;2023-04-16T09:24:45;12.05;;;6.10;;
13493;SDS011;6819;50.886;4.332;2023-04-16T09:27:11;13.45;;;7.03;;
13493;SDS011;6819;50.886;4.332;2023-04-16T09:29:38;12.10;;;6.32;;
13493;SDS011;6819;50.886;4.332;2023-04-16T09:32:06;17.00;;;6.53;;
13493;SDS011;6819;50.886;4.332;2023-04-16T09:34:32;16.70;;;6.35;;
13493;SDS011;6819;50.886;4.332;2023-04-16T09:37:14;17.73;;;5.88;;
13493;SDS011;6819;50.886;4.332;2023-04-16T09:39:41;12.88;;;5.82;;
13493;SDS011;6819;50.886;4.332;2023-04-16T09:42:07;16.05;;;6.90;;
13493;SDS011;6819;50.886;4.332;2023-04-16T09:44:37;17.80;;;6.18;;
13493;SDS011;6819;50.886;4.332;2023-04-16T09:47:06;11.25;;;5.60;;
13493;SDS011;6819;50.886;4.332;2023-04-16T09:49:33;10.82;;;6.30;;
13493;SDS011;6819;50.886;4.332;2023-04-16T09:52:00;14.25;;;5.22;;
13493;SDS011;6819;50.886;4.332;2023-04-16T09:54:26;14.75;;;5.95;;
13493;SDS011;6819;50.886;4.332;2023-04-16T09:56:55;15.27;;;6.03;;
13493;SDS011;6819;50.886;4.332;2023-04-16T09:59:22;11.98;;;6.43;;
13493;SDS011;6819;50.886;4.332;2023-04-16T10:01:49;13.50;;;6.00;;
13493;SDS011;6819;50.886;4.332;2023-04-16T10:04:17;12.68;;;6.40;;
13493;SDS011;6819;50.886;4.332;2023-04-16T10:06:44;15.50;;;6.07;;
13493;SDS011;6819;50.886;4.332;2023-04-16T10:09:30;12.63;;;5.70;;
13493;SDS011;6819;50.886;4.332;2023-04-16T10:11:56;9.18;;;5.32;;
13493;SDS011;6819;50.886;4.332;2023-04-16T10:14:22;14.45;;;6.38;;
13493;SDS011;6819;50.886;4.332;2023-04-16T10:16:48;13.13;;;5.97;;
13493;SDS011;6819;50.886;4.332;2023-04-16T10:19:14;15.95;;;6.13;;
13493;SDS011;6819;50.886;4.332;2023-04-16T10:21:41;14.68;;;7.10;;
13493;SDS011;6819;50.886;4.332;2023-04-16T10:24:07;14.85;;;6.05;;
13493;SDS011;6819;50.886;4.332;2023-04-16T10:26:34;12.25;;;6.43;;
13493;SDS011;6819;50.886;4.332;2023-04-16T10:29:00;13.43;;;5.82;;
13493;SDS011;6819;50.886;4.332;2023-04-16T10:31:27;13.55;;;6.07;;
13493;SDS011;6819;50.886;4.332;2023-04-16T10:33:53;13.93;;;5.97;;
13493;SDS011;6819;50.886;4.332;2023-04-16T10:36:23;11.80;;;6.10;;
13493;SDS011;6819;50.886;4.332;2023-04-16T10:38:56;14.35;;;7.18;;
13493;SDS011;6819;50.886;4.332;2023-04-16T10:41:22;16.70;;;6.80;;
13493;SDS011;6819;50.886;4.332;2023-04-16T10:43:49;16.83;;;6.50;;
13493;SDS011;6819;50.886;4.332;2023-04-16T10:46:25;13.35;;;6.15;;
13493;SDS011;6819;50.886;4.332;2023-04-16T10:48:55;14.88;;;7.13;;
13493;SDS011;6819;50.886;4.332;2023-04-16T10:51:27;16.40;;;5.88;;
13493;SDS011;6819;50.886;4.332;2023-04-16T10:54:03;14.23;;;6.00;;
13493;SDS011;6819;50.886;4.332;2023-04-16T10:56:32;15.10;;;6.10;;
13493;SDS011;6819;50.886;4.332;2023-04-16T10:58:59;15.32;;;6.50;;
13493;SDS011;6819;50.886;4.332;2023-04-16T11:01:46;12.48;;;6.00;;
13493;SDS011;6819;50.886;4.332;2023-04-16T11:12:17;13.70;;;7.03;;
13493;SDS011;6819;50.886;4.332;2023-04-16T11:14:47;18.20;;;6.70;;
13493;SDS011;6819;50.886;4.332;2023-04-16T11:17:14;17.08;;;6.53;;
13493;SDS011;6819;50.886;4.332;2023-04-16T11:19:41;18.98;;;6.82;;
13493;SDS011;6819;50.886;4.332;2023-04-16T11:22:07;18.92;;;7.60;;
13493;SDS011;6819;50.886;4.332;2023-04-16T11:24:33;16.80;;;7.13;;
13493;SDS011;6819;50.886;4.332;2023-04-16T11:27:00;19.98;;;6.75;;
13493;SDS011;6819;50.886;4.332;2023-04-16T11:29:27;15.25;;;6.75;;
13493;SDS011;6819;50.886;4.332;2023-04-16T11:31:53;15.32;;;6.60;;
13493;SDS011;6819;50.886;4.332;2023-04-16T11:34:19;17.13;;;6.85;;
13493;SDS011;6819;50.886;4.332;2023-04-16T11:36:46;12.13;;;6.10;;
13493;SDS011;6819;50.886;4.332;2023-04-16T11:39:12;16.45;;;8.25;;
13493;SDS011;6819;50.886;4.332;2023-04-16T11:41:45;16.35;;;6.88;;
13493;SDS011;6819;50.886;4.332;2023-04-16T11:46:43;14.70;;;6.70;;
13493;SDS011;6819;50.886;4.332;2023-04-16T11:49:09;15.43;;;6.60;;
13493;SDS011;6819;50.886;4.332;2023-04-16T11:51:39;11.93;;;6.78;;
13493;SDS011;6819;50.886;4.332;2023-04-16T11:54:05;16.15;;;6.78;;
13493;SDS011;6819;50.886;4.332;2023-04-16T11:56:33;16.45;;;6.95;;
13493;SDS011;6819;50.886;4.332;2023-04-16T11:59:06;16.25;;;7.43;;
13493;SDS011;6819;50.886;4.332;2023-04-16T12:01:33;12.93;;;7.35;;
13493;SDS011;6819;50.886;4.332;2023-04-16T12:04:00;16.50;;;7.25;;
13493;SDS011;6819;50.886;4.332;2023-04-16T12:06:26;16.85;;;7.57;;
13493;SDS011;6819;50.886;4.332;2023-04-16T12:08:52;14.65;;;6.82;;
13493;SDS011;6819;50.886;4.332;2023-04-16T12:11:18;12.75;;;6.75;;
13493;SDS011;6819;50.886;4.332;2023-04-16T12:16:29;13.35;;;6.78;;
13493;SDS011;6819;50.886;4.332;2023-04-16T12:18:58;13.48;;;7.00;;
13493;SDS011;6819;50.886;4.332;2023-04-16T12:21:34;15.45;;;6.90;;
13493;SDS011;6819;50.886;4.332;2023-04-16T12:24:00;12.50;;;6.65;;
13493;SDS011;6819;50.886;4.332;2023-04-16T12:26:26;15.70;;;6.57;;
13493;SDS011;6819;50.886;4.332;2023-04-16T12:28:53;16.52;;;6.22;;
13493;SDS011;6819;50.886;4.332;2023-04-16T12:31:19;15.60;;;7.07;;
13493;SDS011;6819;50.886;4.332;2023-04-16T12:34:01;15.55;;;6.53;;
13493;SDS011;6819;50.886;4.332;2023-04-16T12:36:27;14.77;;;6.68;;
13493;SDS011;6819;50.886;4.332;2023-04-16T12:38:53;16.50;;;7.15;;
13493;SDS011;6819;50.886;4.332;2023-04-16T12:41:19;15.73;;;7.22;;
13493;SDS011;6819;50.886;4.332;2023-04-16T12:43:45;15.82;;;7.00;;
13493;SDS011;6819;50.886;4.332;2023-04-16T12:46:11;13.48;;;7.10;;
13493;SDS011;6819;50.886;4.332;2023-04-16T12:48:37;18.10;;;7.30;;
13493;SDS011;6819;50.886;4.332;2023-04-16T12:51:03;12.50;;;6.82;;
13493;SDS011;6819;50.886;4.332;2023-04-16T12:53:29;12.77;;;6.95;;
13493;SDS011;6819;50.886;4.332;2023-04-16T12:55:55;13.73;;;6.63;;
13493;SDS011;6819;50.886;4.332;2023-04-16T12:58:21;13.70;;;7.03;;
13493;SDS011;6819;50.886;4.332;2023-04-16T13:00:47;10.27;;;6.80;;
13493;SDS011;6819;50.886;4.332;2023-04-16T13:03:14;15.82;;;6.68;;
13493;SDS011;6819;50.886;4.332;2023-04-16T13:05:40;14.52;;;6.78;;
13493;SDS011;6819;50.886;4.332;2023-04-16T13:08:06;14.88;;;6.97;;
13493;SDS011;6819;50.886;4.332;2023-04-16T13:10:32;12.60;;;6.45;;
13493;SDS011;6819;50.886;4.332;2023-04-16T13:12:58;16.20;;;7.15;;
13493;SDS011;6819;50.886;4.332;2023-04-16T13:15:24;14.25;;;7.28;;
13493;SDS011;6819;50.886;4.332;2023-04-16T13:17:50;17.60;;;6.95;;
13493;SDS011;6819;50.886;4.332;2023-04-16T13:20:16;11.15;;;6.28;;
13493;SDS011;6819;50.886;4.332;2023-04-16T13:22:42;15.15;;;7.72;;
13493;SDS011;6819;50.886;4.332;2023-04-16T13:25:08;15.82;;;6.80;;
13493;SDS011;6819;50.886;4.332;2023-04-16T13:27:34;12.63;;;6.65;;
13493;SDS011;6819;50.886;4.332;2023-04-16T13:30:00;15.25;;;6.82;;
13493;SDS011;6819;50.886;4.332;2023-04-16T13:32:26;16.85;;;6.90;;
13493;SDS011;6819;50.886;4.332;2023-04-16T13:34:52;15.43;;;6.72;;
13493;SDS011;6819;50.886;4.332;2023-04-16T13:37:18;16.73;;;7.53;;
13493;SDS011;6819;50.886;4.332;2023-04-16T13:39:44;14.82;;;6.85;;
13493;SDS011;6819;50.886;4.332;2023-04-16T13:42:11;14.05;;;7.32;;
13493;SDS011;6819;50.886;4.332;2023-04-16T13:44:37;25.33;;;6.97;;
13493;SDS011;6819;50.886;4.332;2023-04-16T13:47:03;14.63;;;7.10;;
13493;SDS011;6819;50.886;4.332;2023-04-16T13:49:29;18.85;;;7.70;;
13493;SDS011;6819;50.886;4.332;2023-04-16T13:51:57;13.25;;;6.72;;
13493;SDS011;6819;50.886;4.332;2023-04-16T13:54:23;17.85;;;6.90;;
13493;SDS011;6819;50.886;4.332;2023-04-16T13:56:49;10.93;;;6.85;;
13493;SDS011;6819;50.886;4.332;2023-04-16T13:59:15;15.23;;;7.18;;
13493;SDS011;6819;50.886;4.332;2023-04-16T14:01:41;16.05;;;6.55;;
13493;SDS011;6819;50.886;4.332;2023-04-16T14:04:07;12.50;;;5.32;;
13493;SDS011;6819;50.886;4.332;2023-04-16T14:06:33;14.13;;;6.18;;
13493;SDS011;6819;50.886;4.332;2023-04-16T14:08:59;18.55;;;6.80;;
13493;SDS011;6819;50.886;4.332;2023-04-16T14:11:25;20.02;;;6.45;;
13493;SDS011;6819;50.886;4.332;2023-04-16T14:13:51;12.82;;;6.60;;
13493;SDS011;6819;50.886;4.332;2023-04-16T14:16:17;13.48;;;6.18;;
13493;SDS011;6819;50.886;4.332;2023-04-16T14:18:43;15.05;;;6.38;;
13493;SDS011;6819;50.886;4.332;2023-04-16T14:21:10;20.85;;;7.53;;
13493;SDS011;6819;50.886;4.332;2023-04-16T14:23:36;14.63;;;7.70;;
13493;SDS011;6819;50.886;4.332;2023-04-16T14:26:02;14.65;;;7.15;;
13493;SDS011;6819;50.886;4.332;2023-04-16T14:28:28;12.88;;;7.63;;
13493;SDS011;6819;50.886;4.332;2023-04-16T14:30:54;19.95;;;8.38;;
13493;SDS011;6819;50.886;4.332;2023-04-16T14:33:20;26.52;;;7.25;;
13493;SDS011;6819;50.886;4.332;2023-04-16T14:35:46;17.02;;;7.65;;
13493;SDS011;6819;50.886;4.332;2023-04-16T14:38:14;12.02;;;7.30;;
13493;SDS011;6819;50.886;4.332;2023-04-16T14:40:40;14.85;;;6.95;;
13493;SDS011;6819;50.886;4.332;2023-04-16T14:43:06;12.80;;;7.60;;
13493;SDS011;6819;50.886;4.332;2023-04-16T14:45:32;11.10;;;6.97;;
13493;SDS011;6819;50.886;4.332;2023-04-16T14:47:58;13.70;;;7.78;;
13493;SDS011;6819;50.886;4.332;2023-04-16T14:50:24;15.32;;;8.45;;
13493;SDS011;6819;50.886;4.332;2023-04-16T14:52:50;13.40;;;7.30;;
13493;SDS011;6819;50.886;4.332;2023-04-16T14:55:18;13.55;;;6.78;;
13493;SDS011;6819;50.886;4.332;2023-04-16T14:57:44;12.25;;;7.70;;
13493;SDS011;6819;50.886;4.332;2023-04-16T15:00:11;17.27;;;9.07;;
13493;SDS011;6819;50.886;4.332;2023-04-16T15:02:37;14.77;;;7.90;;